Mostaganem, Algeria
Current Conditions -  °F | °C
As of 3:30 PM on Friday 24 Oct 2014 (Local Time) from DAOO Reporting Station
Clear Clear  
Wind Chill: 79°   Ceiling: Unl
Heat Index: 80°   Visibility: 6mi
Dew Point: 59°   Wind: 12mph
Humidity: 51%   Direction: 350°N
Pressure: 30"   Gusts: NA
Location:  35.94°N, 0.09°E
Report Text: DAOO 241430Z 35010KT CAVOK 26/15 Q1016
Loading
Personal Weather Stations






























Interactive Weather Map
Tropical Storm Tracking
New forecast layout! Learn more

10-Day Weather Forecast

Advertisements
Track Severe Weather on mobile